sensor_id;sensor_type;location;lat;lon;timestamp;pressure;altitude;pressure_sealevel;temperature;humidity
4576;BME280;2300;51.874;8.430;2023-05-08T00:01:03;101268.56;;;10.93;82.35
4576;BME280;2300;51.874;8.430;2023-05-08T00:03:30;101286.25;;;11.03;82.35
4576;BME280;2300;51.874;8.430;2023-05-08T00:05:56;101284.56;;;11.02;81.78
4576;BME280;2300;51.874;8.430;2023-05-08T00:08:24;101250.41;;;10.85;81.55
4576;BME280;2300;51.874;8.430;2023-05-08T00:10:51;101263.13;;;10.79;82.28
4576;BME280;2300;51.874;8.430;2023-05-08T00:13:17;101289.63;;;10.99;82.39
4576;BME280;2300;51.874;8.430;2023-05-08T00:15:44;101225.47;;;10.49;82.08
4576;BME280;2300;51.874;8.430;2023-05-08T00:18:10;101285.78;;;11.06;81.93
4576;BME280;2300;51.874;8.430;2023-05-08T00:20:38;101252.59;;;10.76;81.79
4576;BME280;2300;51.874;8.430;2023-05-08T00:23:04;101290.44;;;11.06;81.59
4576;BME280;2300;51.874;8.430;2023-05-08T00:25:32;101284.97;;;10.99;81.90
4576;BME280;2300;51.874;8.430;2023-05-08T00:27:59;101253.81;;;10.80;81.84
4576;BME280;2300;51.874;8.430;2023-05-08T00:30:26;101272.16;;;10.93;81.36
4576;BME280;2300;51.874;8.430;2023-05-08T00:32:52;101269.81;;;10.90;81.67
4576;BME280;2300;51.874;8.430;2023-05-08T00:35:19;101287.88;;;11.11;81.52
4576;BME280;2300;51.874;8.430;2023-05-08T00:37:45;101283.31;;;10.98;82.08
4576;BME280;2300;51.874;8.430;2023-05-08T00:40:12;101287.53;;;11.01;81.95
4576;BME280;2300;51.874;8.430;2023-05-08T00:42:40;101287.47;;;11.07;81.39
4576;BME280;2300;51.874;8.430;2023-05-08T00:45:08;101271.97;;;10.88;81.82
4576;BME280;2300;51.874;8.430;2023-05-08T00:47:34;101284.59;;;10.96;82.16
4576;BME280;2300;51.874;8.430;2023-05-08T00:50:01;101274.28;;;10.91;81.79
4576;BME280;2300;51.874;8.430;2023-05-08T00:52:29;101273.56;;;11.02;81.70
4576;BME280;2300;51.874;8.430;2023-05-08T00:54:56;101265.91;;;10.73;82.10
4576;BME280;2300;51.874;8.430;2023-05-08T00:57:24;101268.31;;;10.94;82.11
4576;BME280;2300;51.874;8.430;2023-05-08T00:59:53;101278.63;;;10.99;81.79
4576;BME280;2300;51.874;8.430;2023-05-08T01:02:20;101277.19;;;10.96;82.20
4576;BME280;2300;51.874;8.430;2023-05-08T01:04:47;101294.75;;;10.95;82.27
4576;BME280;2300;51.874;8.430;2023-05-08T01:07:13;101275.97;;;10.92;81.83
4576;BME280;2300;51.874;8.430;2023-05-08T01:09:40;101242.28;;;10.72;81.71
4576;BME280;2300;51.874;8.430;2023-05-08T01:12:15;101276.16;;;10.91;81.79
4576;BME280;2300;51.874;8.430;2023-05-08T01:14:58;101274.63;;;11.01;81.94
4576;BME280;2300;51.874;8.430;2023-05-08T01:17:32;101279.47;;;10.99;81.99
4576;BME280;2300;51.874;8.430;2023-05-08T01:20:17;101247.94;;;10.77;82.19
4576;BME280;2300;51.874;8.430;2023-05-08T01:23:13;101267.34;;;10.82;82.44
4576;BME280;2300;51.874;8.430;2023-05-08T01:32:06;101282.13;;;10.88;82.43
4576;BME280;2300;51.874;8.430;2023-05-08T01:34:37;101284.22;;;10.85;82.73
4576;BME280;2300;51.874;8.430;2023-05-08T01:37:11;101286.78;;;10.80;83.07
4576;BME280;2300;51.874;8.430;2023-05-08T01:39:43;101289.94;;;10.84;83.03
4576;BME280;2300;51.874;8.430;2023-05-08T01:42:17;101277.28;;;10.83;82.68
4576;BME280;2300;51.874;8.430;2023-05-08T01:44:52;101293.03;;;10.94;82.51
4576;BME280;2300;51.874;8.430;2023-05-08T01:47:23;101260.88;;;10.70;82.55
4576;BME280;2300;51.874;8.430;2023-05-08T01:49:57;101288.06;;;10.78;82.70
4576;BME280;2300;51.874;8.430;2023-05-08T01:52:30;101249.53;;;10.53;83.09
4576;BME280;2300;51.874;8.430;2023-05-08T01:55:00;101281.38;;;10.67;83.88
4576;BME280;2300;51.874;8.430;2023-05-08T01:57:30;101285.97;;;10.73;83.52
4576;BME280;2300;51.874;8.430;2023-05-08T01:59:59;101284.38;;;10.59;83.92
4576;BME280;2300;51.874;8.430;2023-05-08T02:02:29;101261.84;;;10.37;84.18
4576;BME280;2300;51.874;8.430;2023-05-08T02:04:57;101270.91;;;10.45;83.79
4576;BME280;2300;51.874;8.430;2023-05-08T02:07:26;101275.78;;;10.42;84.19
4576;BME280;2300;51.874;8.430;2023-05-08T02:09:53;101234.91;;;10.08;84.70
4576;BME280;2300;51.874;8.430;2023-05-08T02:12:21;101297.88;;;10.61;84.68
4576;BME280;2300;51.874;8.430;2023-05-08T02:14:48;101291.16;;;10.57;84.56
4576;BME280;2300;51.874;8.430;2023-05-08T02:17:16;101275.06;;;10.60;83.91
4576;BME280;2300;51.874;8.430;2023-05-08T02:19:45;101276.41;;;10.45;84.97
4576;BME280;2300;51.874;8.430;2023-05-08T02:22:14;101282.47;;;10.60;84.47
4576;BME280;2300;51.874;8.430;2023-05-08T02:24:42;101273.41;;;10.53;84.51
4576;BME280;2300;51.874;8.430;2023-05-08T02:27:11;101269.25;;;10.37;85.52
4576;BME280;2300;51.874;8.430;2023-05-08T02:29:38;101272.63;;;10.39;85.14
4576;BME280;2300;51.874;8.430;2023-05-08T02:32:07;101277.22;;;10.52;84.99
4576;BME280;2300;51.874;8.430;2023-05-08T02:34:34;101279.78;;;10.47;85.19
4576;BME280;2300;51.874;8.430;2023-05-08T02:37:03;101284.47;;;10.39;84.92
4576;BME280;2300;51.874;8.430;2023-05-08T02:39:32;101278.75;;;10.41;85.18
4576;BME280;2300;51.874;8.430;2023-05-08T02:42:00;101265.66;;;10.36;85.21
4576;BME280;2300;51.874;8.430;2023-05-08T02:44:28;101279.38;;;10.36;84.75
4576;BME280;2300;51.874;8.430;2023-05-08T02:46:57;101287.59;;;10.50;84.70
4576;BME280;2300;51.874;8.430;2023-05-08T02:49:29;101281.03;;;10.51;85.09
4576;BME280;2300;51.874;8.430;2023-05-08T02:52:04;101276.22;;;10.39;85.54
4576;BME280;2300;51.874;8.430;2023-05-08T02:54:37;101272.25;;;10.29;85.89
4576;BME280;2300;51.874;8.430;2023-05-08T02:57:17;101278.97;;;10.33;85.60
4576;BME280;2300;51.874;8.430;2023-05-08T02:59:55;101286.56;;;10.37;85.37
4576;BME280;2300;51.874;8.430;2023-05-08T03:02:27;101264.00;;;10.22;85.93
4576;BME280;2300;51.874;8.430;2023-05-08T03:04:59;101279.38;;;10.36;85.72
4576;BME280;2300;51.874;8.430;2023-05-08T03:07:31;101274.16;;;10.28;85.92
4576;BME280;2300;51.874;8.430;2023-05-08T03:10:01;101283.22;;;10.35;85.82
4576;BME280;2300;51.874;8.430;2023-05-08T03:12:30;101289.13;;;10.32;86.57
4576;BME280;2300;51.874;8.430;2023-05-08T03:15:02;101282.97;;;10.37;86.07
4576;BME280;2300;51.874;8.430;2023-05-08T03:17:31;101279.44;;;10.30;85.50
4576;BME280;2300;51.874;8.430;2023-05-08T03:20:02;101270.31;;;10.36;85.84
4576;BME280;2300;51.874;8.430;2023-05-08T03:22:33;101272.25;;;10.29;86.04
4576;BME280;2300;51.874;8.430;2023-05-08T03:25:03;101281.06;;;10.37;85.46
4576;BME280;2300;51.874;8.430;2023-05-08T03:27:31;101271.00;;;10.25;85.81
4576;BME280;2300;51.874;8.430;2023-05-08T03:29:59;101269.50;;;10.29;86.12
4576;BME280;2300;51.874;8.430;2023-05-08T03:32:28;101276.03;;;10.21;86.13
4576;BME280;2300;51.874;8.430;2023-05-08T03:34:57;101275.19;;;10.27;86.47
4576;BME280;2300;51.874;8.430;2023-05-08T03:37:25;101271.00;;;10.25;86.93
4576;BME280;2300;51.874;8.430;2023-05-08T03:39:54;101275.19;;;10.27;86.05
4576;BME280;2300;51.874;8.430;2023-05-08T03:42:22;101270.53;;;10.21;86.95
4576;BME280;2300;51.874;8.430;2023-05-08T03:44:49;101268.44;;;10.17;86.36
4576;BME280;2300;51.874;8.430;2023-05-08T03:47:18;101273.78;;;10.05;87.57
4576;BME280;2300;51.874;8.430;2023-05-08T03:49:45;101268.47;;;10.23;86.64
4576;BME280;2300;51.874;8.430;2023-05-08T03:52:12;101272.03;;;10.11;87.06
4576;BME280;2300;51.874;8.430;2023-05-08T03:54:39;101273.53;;;10.13;87.30
4576;BME280;2300;51.874;8.430;2023-05-08T03:57:07;101268.03;;;10.13;87.68
4576;BME280;2300;51.874;8.430;2023-05-08T03:59:41;101271.38;;;10.22;87.02
4576;BME280;2300;51.874;8.430;2023-05-08T04:02:16;101266.53;;;10.17;86.60
4576;BME280;2300;51.874;8.430;2023-05-08T04:04:46;101275.19;;;10.27;86.49
4576;BME280;2300;51.874;8.430;2023-05-08T04:07:21;101257.47;;;10.17;86.69
4576;BME280;2300;51.874;8.430;2023-05-08T04:09:57;101272.22;;;10.22;86.91
4576;BME280;2300;51.874;8.430;2023-05-08T04:12:32;101249.09;;;10.05;86.83
4576;BME280;2300;51.874;8.430;2023-05-08T04:15:04;101273.75;;;10.25;87.27
4576;BME280;2300;51.874;8.430;2023-05-08T04:17:36;101275.22;;;10.21;87.22
4576;BME280;2300;51.874;8.430;2023-05-08T04:20:06;101266.78;;;10.16;87.10
4576;BME280;2300;51.874;8.430;2023-05-08T04:22:34;101269.53;;;10.16;87.70
4576;BME280;2300;51.874;8.430;2023-05-08T04:25:05;101270.53;;;10.21;87.28
4576;BME280;2300;51.874;8.430;2023-05-08T04:27:34;101254.19;;;9.95;86.98
4576;BME280;2300;51.874;8.430;2023-05-08T04:30:01;101271.81;;;10.19;87.06
4576;BME280;2300;51.874;8.430;2023-05-08T04:32:29;101279.47;;;10.10;87.11
4576;BME280;2300;51.874;8.430;2023-05-08T04:34:57;101267.78;;;10.21;87.19
4576;BME280;2300;51.874;8.430;2023-05-08T04:37:25;101265.03;;;10.34;87.16
4576;BME280;2300;51.874;8.430;2023-05-08T04:39:52;101267.19;;;10.26;87.37
4576;BME280;2300;51.874;8.430;2023-05-08T04:42:18;101260.63;;;10.27;87.02
4576;BME280;2300;51.874;8.430;2023-05-08T04:44:46;101277.72;;;10.35;87.26
4576;BME280;2300;51.874;8.430;2023-05-08T04:47:13;101274.78;;;10.30;86.82
4576;BME280;2300;51.874;8.430;2023-05-08T04:49:40;101278.50;;;10.49;86.69
4576;BME280;2300;51.874;8.430;2023-05-08T04:52:06;101284.38;;;10.53;86.29
4576;BME280;2300;51.874;8.430;2023-05-08T04:54:33;101272.50;;;10.65;85.95
4576;BME280;2300;51.874;8.430;2023-05-08T04:56:59;101266.34;;;10.70;85.95
4576;BME280;2300;51.874;8.430;2023-05-08T04:59:26;101285.88;;;10.93;84.30
4576;BME280;2300;51.874;8.430;2023-05-08T05:01:55;101285.94;;;10.80;84.47
4576;BME280;2300;51.874;8.430;2023-05-08T05:04:22;101281.50;;;10.79;85.10
4576;BME280;2300;51.874;8.430;2023-05-08T05:06:48;101296.44;;;10.96;84.15
4576;BME280;2300;51.874;8.430;2023-05-08T05:09:14;101302.56;;;10.98;83.88
4576;BME280;2300;51.874;8.430;2023-05-08T05:11:41;101300.72;;;10.85;84.83
4576;BME280;2300;51.874;8.430;2023-05-08T05:14:07;101299.88;;;10.85;84.90
4576;BME280;2300;51.874;8.430;2023-05-08T05:16:34;101306.13;;;10.99;84.49
4576;BME280;2300;51.874;8.430;2023-05-08T05:19:02;101303.75;;;11.09;84.24
4576;BME280;2300;51.874;8.430;2023-05-08T05:21:29;101294.97;;;11.25;83.39
4576;BME280;2300;51.874;8.430;2023-05-08T05:23:55;101301.59;;;11.42;83.34
4576;BME280;2300;51.874;8.430;2023-05-08T05:26:21;101306.16;;;11.55;82.38
4576;BME280;2300;51.874;8.430;2023-05-08T05:28:48;101306.25;;;11.73;81.81
4576;BME280;2300;51.874;8.430;2023-05-08T05:31:15;101313.03;;;11.95;81.35
4576;BME280;2300;51.874;8.430;2023-05-08T05:33:41;101304.00;;;12.61;79.22
4576;BME280;2300;51.874;8.430;2023-05-08T05:36:09;101314.41;;;14.02;75.68
4576;BME280;2300;51.874;8.430;2023-05-08T05:38:35;101318.97;;;15.56;71.84
4576;BME280;2300;51.874;8.430;2023-05-08T05:41:03;101313.13;;;16.85;68.26
4576;BME280;2300;51.874;8.430;2023-05-08T05:43:30;101320.88;;;17.90;63.74
4576;BME280;2300;51.874;8.430;2023-05-08T05:46:02;101327.50;;;19.50;60.10
4576;BME280;2300;51.874;8.430;2023-05-08T05:48:30;101315.84;;;19.68;58.18
4576;BME280;2300;51.874;8.430;2023-05-08T05:50:56;101339.41;;;20.72;55.29
4576;BME280;2300;51.874;8.430;2023-05-08T05:53:24;101328.91;;;21.08;55.67
4576;BME280;2300;51.874;8.430;2023-05-08T05:55:51;101326.59;;;21.20;53.87
4576;BME280;2300;51.874;8.430;2023-05-08T05:58:17;101342.69;;;20.84;55.49
4576;BME280;2300;51.874;8.430;2023-05-08T06:00:44;101322.75;;;19.61;56.15
4576;BME280;2300;51.874;8.430;2023-05-08T06:03:11;101329.41;;;17.83;59.89
4576;BME280;2300;51.874;8.430;2023-05-08T06:05:38;101333.31;;;16.37;64.47
4576;BME280;2300;51.874;8.430;2023-05-08T06:08:05;101335.59;;;16.83;64.15
4576;BME280;2300;51.874;8.430;2023-05-08T06:10:33;101335.19;;;18.09;61.94
4576;BME280;2300;51.874;8.430;2023-05-08T06:12:59;101333.00;;;19.20;59.82
4576;BME280;2300;51.874;8.430;2023-05-08T06:15:26;101333.56;;;21.28;55.94
4576;BME280;2300;51.874;8.430;2023-05-08T06:17:52;101342.63;;;22.21;53.50
4576;BME280;2300;51.874;8.430;2023-05-08T06:20:19;101335.78;;;22.04;53.00
4576;BME280;2300;51.874;8.430;2023-05-08T06:22:45;101329.22;;;21.51;54.31
4576;BME280;2300;51.874;8.430;2023-05-08T06:25:12;101335.72;;;21.80;54.75
4576;BME280;2300;51.874;8.430;2023-05-08T06:27:40;101338.72;;;22.46;52.26
4576;BME280;2300;51.874;8.430;2023-05-08T06:30:07;101333.13;;;22.23;51.99
4576;BME280;2300;51.874;8.430;2023-05-08T06:32:34;101320.63;;;20.93;53.76
4576;BME280;2300;51.874;8.430;2023-05-08T06:35:01;101325.56;;;20.17;56.07
4576;BME280;2300;51.874;8.430;2023-05-08T06:37:28;101333.81;;;19.10;58.22
4576;BME280;2300;51.874;8.430;2023-05-08T06:39:54;101337.75;;;18.62;59.77
4576;BME280;2300;51.874;8.430;2023-05-08T06:42:21;101350.75;;;17.78;62.54
4576;BME280;2300;51.874;8.430;2023-05-08T06:44:48;101344.63;;;17.44;63.22
4576;BME280;2300;51.874;8.430;2023-05-08T06:47:17;101340.13;;;17.38;62.97
4576;BME280;2300;51.874;8.430;2023-05-08T06:49:44;101340.81;;;17.50;64.45
4576;BME280;2300;51.874;8.430;2023-05-08T06:52:10;101336.19;;;17.07;63.46
4576;BME280;2300;51.874;8.430;2023-05-08T06:54:37;101341.47;;;16.65;66.21
4576;BME280;2300;51.874;8.430;2023-05-08T06:57:05;101345.34;;;17.07;64.70
4576;BME280;2300;51.874;8.430;2023-05-08T06:59:32;101334.38;;;16.52;64.73
4576;BME280;2300;51.874;8.430;2023-05-08T07:02:00;101334.50;;;16.24;68.22
4576;BME280;2300;51.874;8.430;2023-05-08T07:04:27;101322.09;;;16.26;67.75
4576;BME280;2300;51.874;8.430;2023-05-08T07:06:53;101325.16;;;16.47;66.76
4576;BME280;2300;51.874;8.430;2023-05-08T07:09:20;101330.66;;;15.91;69.52
4576;BME280;2300;51.874;8.430;2023-05-08T07:11:46;101338.38;;;15.73;69.48
4576;BME280;2300;51.874;8.430;2023-05-08T07:14:13;101328.63;;;15.87;69.43
4576;BME280;2300;51.874;8.430;2023-05-08T07:16:39;101334.91;;;15.66;70.13
4576;BME280;2300;51.874;8.430;2023-05-08T07:19:07;101340.63;;;15.76;70.48
4576;BME280;2300;51.874;8.430;2023-05-08T07:21:34;101338.03;;;15.86;70.47
4576;BME280;2300;51.874;8.430;2023-05-08T07:24:00;101353.06;;;16.62;68.62
4576;BME280;2300;51.874;8.430;2023-05-08T07:26:27;101335.72;;;17.15;66.37
4576;BME280;2300;51.874;8.430;2023-05-08T07:28:53;101337.28;;;17.59;66.95
4576;BME280;2300;51.874;8.430;2023-05-08T07:31:20;101334.69;;;18.12;64.25
4576;BME280;2300;51.874;8.430;2023-05-08T07:33:47;101339.88;;;18.45;63.56
4576;BME280;2300;51.874;8.430;2023-05-08T07:36:14;101337.00;;;18.30;63.34
4576;BME280;2300;51.874;8.430;2023-05-08T07:38:41;101330.75;;;18.50;63.82
4576;BME280;2300;51.874;8.430;2023-05-08T07:41:07;101329.09;;;18.49;63.90
4576;BME280;2300;51.874;8.430;2023-05-08T07:43:34;101313.03;;;18.71;63.63
4576;BME280;2300;51.874;8.430;2023-05-08T07:46:01;101309.44;;;18.70;62.76
4576;BME280;2300;51.874;8.430;2023-05-08T07:48:27;101319.25;;;18.83;62.43
4576;BME280;2300;51.874;8.430;2023-05-08T07:50:54;101321.81;;;19.00;62.71
4576;BME280;2300;51.874;8.430;2023-05-08T07:53:22;101326.84;;;19.08;61.71
4576;BME280;2300;51.874;8.430;2023-05-08T07:55:48;101322.69;;;18.48;63.83
4576;BME280;2300;51.874;8.430;2023-05-08T07:58:14;101321.81;;;19.00;63.22
4576;BME280;2300;51.874;8.430;2023-05-08T08:00:41;101310.09;;;18.88;63.37
4576;BME280;2300;51.874;8.430;2023-05-08T08:03:08;101291.06;;;18.12;64.69
4576;BME280;2300;51.874;8.430;2023-05-08T08:05:35;101308.53;;;19.27;65.15
4576;BME280;2300;51.874;8.430;2023-05-08T08:08:01;101295.47;;;19.63;63.87
4576;BME280;2300;51.874;8.430;2023-05-08T08:10:31;101272.31;;;20.18;61.00
4576;BME280;2300;51.874;8.430;2023-05-08T08:12:58;101298.53;;;20.12;62.17
4576;BME280;2300;51.874;8.430;2023-05-08T08:15:25;101291.81;;;20.18;61.86
4576;BME280;2300;51.874;8.430;2023-05-08T08:17:52;101304.66;;;20.09;62.47
4576;BME280;2300;51.874;8.430;2023-05-08T08:20:19;101282.94;;;19.91;63.00
4576;BME280;2300;51.874;8.430;2023-05-08T08:22:46;101295.47;;;20.08;61.30
4576;BME280;2300;51.874;8.430;2023-05-08T08:25:13;101282.00;;;20.56;61.33
4576;BME280;2300;51.874;8.430;2023-05-08T08:27:40;101291.81;;;20.18;61.90
4576;BME280;2300;51.874;8.430;2023-05-08T08:30:07;101297.31;;;20.59;60.04
4576;BME280;2300;51.874;8.430;2023-05-08T08:32:34;101287.13;;;19.98;61.31
4576;BME280;2300;51.874;8.430;2023-05-08T08:35:00;101296.84;;;19.60;63.69
4576;BME280;2300;51.874;8.430;2023-05-08T08:37:27;101293.47;;;19.23;63.19
4576;BME280;2300;51.874;8.430;2023-05-08T08:39:54;101286.25;;;19.12;63.39
4576;BME280;2300;51.874;8.430;2023-05-08T08:42:20;101296.00;;;19.29;64.11
4576;BME280;2300;51.874;8.430;2023-05-08T08:44:49;101294.63;;;19.42;62.17
4576;BME280;2300;51.874;8.430;2023-05-08T08:47:16;101287.91;;;19.33;65.31
4576;BME280;2300;51.874;8.430;2023-05-08T08:49:46;101303.53;;;19.54;64.38
4576;BME280;2300;51.874;8.430;2023-05-08T08:52:18;101302.63;;;20.55;61.98
4576;BME280;2300;51.874;8.430;2023-05-08T08:54:48;101301.88;;;20.99;62.20
4576;BME280;2300;51.874;8.430;2023-05-08T08:57:16;101301.78;;;20.60;61.76
4576;BME280;2300;51.874;8.430;2023-05-08T08:59:43;101297.56;;;21.16;60.16
4576;BME280;2300;51.874;8.430;2023-05-08T09:02:12;101309.94;;;21.00;62.17
4576;BME280;2300;51.874;8.430;2023-05-08T09:04:42;101287.22;;;20.68;63.19
4576;BME280;2300;51.874;8.430;2023-05-08T09:07:09;101303.03;;;20.92;62.38
4576;BME280;2300;51.874;8.430;2023-05-08T09:09:38;101309.41;;;21.47;60.13
4576;BME280;2300;51.874;8.430;2023-05-08T09:12:06;101307.41;;;21.09;62.49
4576;BME280;2300;51.874;8.430;2023-05-08T09:14:32;101302.63;;;21.09;61.09
4576;BME280;2300;51.874;8.430;2023-05-08T09:16:59;101289.78;;;21.13;60.30
4576;BME280;2300;51.874;8.430;2023-05-08T09:19:27;101302.41;;;20.11;63.02
4576;BME280;2300;51.874;8.430;2023-05-08T09:21:54;101306.84;;;20.32;63.89
4576;BME280;2300;51.874;8.430;2023-05-08T09:24:21;101307.97;;;20.31;63.66
4576;BME280;2300;51.874;8.430;2023-05-08T09:26:47;101286.88;;;19.95;63.13
4576;BME280;2300;51.874;8.430;2023-05-08T09:29:15;101307.91;;;20.62;64.12
4576;BME280;2300;51.874;8.430;2023-05-08T09:31:43;101305.28;;;21.40;63.58
4576;BME280;2300;51.874;8.430;2023-05-08T09:34:21;101307.72;;;21.46;63.63
4576;BME280;2300;51.874;8.430;2023-05-08T09:36:50;101295.44;;;21.47;61.79
4576;BME280;2300;51.874;8.430;2023-05-08T09:39:21;101308.75;;;21.60;60.75
4576;BME280;2300;51.874;8.430;2023-05-08T09:41:57;101310.22;;;21.87;62.39
4576;BME280;2300;51.874;8.430;2023-05-08T09:44:24;101305.72;;;22.19;60.03
4576;BME280;2300;51.874;8.430;2023-05-08T09:46:51;101308.16;;;21.97;60.14
4576;BME280;2300;51.874;8.430;2023-05-08T09:49:18;101309.03;;;21.93;60.83
4576;BME280;2300;51.874;8.430;2023-05-08T09:51:51;101300.50;;;21.45;61.67
4576;BME280;2300;51.874;8.430;2023-05-08T09:54:19;101303.13;;;21.26;61.30
4576;BME280;2300;51.874;8.430;2023-05-08T09:56:45;101298.16;;;21.13;60.88
4576;BME280;2300;51.874;8.430;2023-05-08T09:59:23;101296.25;;;21.09;63.09
4576;BME280;2300;51.874;8.430;2023-05-08T10:01:50;101303.06;;;21.36;62.33
4576;BME280;2300;51.874;8.430;2023-05-08T10:04:17;101305.50;;;21.48;63.99
4576;BME280;2300;51.874;8.430;2023-05-08T10:06:56;101305.19;;;21.84;64.48
4576;BME280;2300;51.874;8.430;2023-05-08T10:09:22;101293.66;;;21.95;62.54
4576;BME280;2300;51.874;8.430;2023-05-08T10:11:50;101295.88;;;21.93;63.39
4576;BME280;2300;51.874;8.430;2023-05-08T10:14:17;101307.63;;;22.24;62.32
4576;BME280;2300;51.874;8.430;2023-05-08T10:16:45;101298.66;;;21.64;62.13
4576;BME280;2300;51.874;8.430;2023-05-08T10:19:14;101302.84;;;22.01;62.63
4576;BME280;2300;51.874;8.430;2023-05-08T10:21:41;101298.22;;;22.39;61.34
4576;BME280;2300;51.874;8.430;2023-05-08T10:24:15;101309.41;;;22.39;60.42
4576;BME280;2300;51.874;8.430;2023-05-08T10:26:43;101306.94;;;22.37;60.57
4576;BME280;2300;51.874;8.430;2023-05-08T10:29:17;101306.22;;;22.27;62.37
4576;BME280;2300;51.874;8.430;2023-05-08T10:31:49;101299.91;;;22.40;61.18
4576;BME280;2300;51.874;8.430;2023-05-08T10:34:21;101292.13;;;22.84;58.36
4576;BME280;2300;51.874;8.430;2023-05-08T10:36:48;101290.91;;;22.67;58.75
4576;BME280;2300;51.874;8.430;2023-05-08T10:39:18;101284.06;;;22.30;62.01
4576;BME280;2300;51.874;8.430;2023-05-08T10:41:47;101293.38;;;21.97;61.84
4576;BME280;2300;51.874;8.430;2023-05-08T10:44:14;101284.00;;;22.35;62.76
4576;BME280;2300;51.874;8.430;2023-05-08T10:46:45;101283.59;;;22.47;62.91
4576;BME280;2300;51.874;8.430;2023-05-08T10:49:19;101279.06;;;22.51;62.30
4576;BME280;2300;51.874;8.430;2023-05-08T10:51:54;101281.84;;;22.80;61.25
4576;BME280;2300;51.874;8.430;2023-05-08T10:54:34;101284.91;;;22.54;61.47
4576;BME280;2300;51.874;8.430;2023-05-08T10:57:07;101281.97;;;22.64;62.25
4576;BME280;2300;51.874;8.430;2023-05-08T10:59:34;101284.78;;;22.88;60.89
4576;BME280;2300;51.874;8.430;2023-05-08T11:02:03;101281.50;;;22.81;61.82
4576;BME280;2300;51.874;8.430;2023-05-08T11:04:29;101283.19;;;23.01;59.57
4576;BME280;2300;51.874;8.430;2023-05-08T11:06:56;101278.81;;;22.95;62.44
4576;BME280;2300;51.874;8.430;2023-05-08T11:09:28;101274.25;;;22.80;61.62
4576;BME280;2300;51.874;8.430;2023-05-08T11:12:04;101269.81;;;22.79;61.73
4576;BME280;2300;51.874;8.430;2023-05-08T11:14:32;101272.59;;;22.79;62.18
4576;BME280;2300;51.874;8.430;2023-05-08T11:17:04;101274.19;;;23.23;59.66
4576;BME280;2300;51.874;8.430;2023-05-08T11:19:32;101273.56;;;23.63;59.87
4576;BME280;2300;51.874;8.430;2023-05-08T11:22:21;101271.47;;;23.87;60.36
4576;BME280;2300;51.874;8.430;2023-05-08T11:24:52;101271.19;;;23.57;59.35
4576;BME280;2300;51.874;8.430;2023-05-08T11:30:33;101271.56;;;23.31;58.10
4576;BME280;2300;51.874;8.430;2023-05-08T11:33:13;101269.59;;;23.13;59.19
4576;BME280;2300;51.874;8.430;2023-05-08T11:35:46;101269.94;;;23.06;61.02
4576;BME280;2300;51.874;8.430;2023-05-08T11:38:14;101272.03;;;23.20;61.62
4576;BME280;2300;51.874;8.430;2023-05-08T11:40:47;101262.84;;;23.14;60.27
4576;BME280;2300;51.874;8.430;2023-05-08T11:43:49;101260.91;;;23.52;60.00
4576;BME280;2300;51.874;8.430;2023-05-08T11:46:20;101267.38;;;23.99;59.31
4576;BME280;2300;51.874;8.430;2023-05-08T11:48:47;101245.25;;;24.11;58.98
4576;BME280;2300;51.874;8.430;2023-05-08T11:51:16;101256.06;;;24.04;58.73
4576;BME280;2300;51.874;8.430;2023-05-08T11:53:43;101255.78;;;23.86;59.84
4576;BME280;2300;51.874;8.430;2023-05-08T11:56:11;101251.91;;;24.15;57.64
4576;BME280;2300;51.874;8.430;2023-05-08T11:58:38;101238.16;;;24.00;59.75
4576;BME280;2300;51.874;8.430;2023-05-08T12:01:04;101250.44;;;24.04;58.70
4576;BME280;2300;51.874;8.430;2023-05-08T12:03:31;101243.34;;;23.93;57.02
4576;BME280;2300;51.874;8.430;2023-05-08T12:05:58;101251.72;;;23.46;58.40
4576;BME280;2300;51.874;8.430;2023-05-08T12:08:25;101245.50;;;23.31;61.09
4576;BME280;2300;51.874;8.430;2023-05-08T12:10:53;101257.56;;;23.13;59.50
4576;BME280;2300;51.874;8.430;2023-05-08T12:13:22;101252.72;;;23.37;58.74
4576;BME280;2300;51.874;8.430;2023-05-08T12:15:50;101250.94;;;23.60;59.62
4576;BME280;2300;51.874;8.430;2023-05-08T12:18:18;101238.69;;;24.02;60.34
4576;BME280;2300;51.874;8.430;2023-05-08T12:20:45;101230.09;;;24.25;59.87
4576;BME280;2300;51.874;8.430;2023-05-08T12:23:16;101251.31;;;24.45;61.08
4576;BME280;2300;51.874;8.430;2023-05-08T12:25:42;101246.28;;;24.97;59.06
4576;BME280;2300;51.874;8.430;2023-05-08T12:28:09;101241.34;;;24.66;58.85
4576;BME280;2300;51.874;8.430;2023-05-08T12:30:37;101238.13;;;25.09;59.16
4576;BME280;2300;51.874;8.430;2023-05-08T12:33:04;101235.84;;;25.11;58.34
4576;BME280;2300;51.874;8.430;2023-05-08T12:35:31;101231.97;;;24.85;59.18
4576;BME280;2300;51.874;8.430;2023-05-08T12:38:00;101223.41;;;24.90;58.87
4576;BME280;2300;51.874;8.430;2023-05-08T12:40:27;101229.22;;;25.07;59.86
4576;BME280;2300;51.874;8.430;2023-05-08T12:42:56;101223.84;;;25.19;59.38
4576;BME280;2300;51.874;8.430;2023-05-08T12:45:24;101225.94;;;24.64;58.41
4576;BME280;2300;51.874;8.430;2023-05-08T12:47:57;101202.94;;;24.62;59.61
4576;BME280;2300;51.874;8.430;2023-05-08T12:50:24;101214.69;;;24.78;59.75
4576;BME280;2300;51.874;8.430;2023-05-08T12:52:52;101217.63;;;24.86;59.51
4576;BME280;2300;51.874;8.430;2023-05-08T12:55:19;101215.88;;;25.12;58.07
4576;BME280;2300;51.874;8.430;2023-05-08T12:57:46;101221.81;;;25.33;58.19
4576;BME280;2300;51.874;8.430;2023-05-08T13:00:14;101214.72;;;25.49;57.07
4576;BME280;2300;51.874;8.430;2023-05-08T13:02:50;101212.88;;;25.76;57.80
4576;BME280;2300;51.874;8.430;2023-05-08T13:05:20;101211.50;;;25.42;55.73
4576;BME280;2300;51.874;8.430;2023-05-08T13:07:47;101203.56;;;25.22;55.96
4576;BME280;2300;51.874;8.430;2023-05-08T13:10:13;101215.13;;;24.71;56.37
4576;BME280;2300;51.874;8.430;2023-05-08T13:12:40;101207.84;;;24.70;56.57
4576;BME280;2300;51.874;8.430;2023-05-08T13:15:07;101212.66;;;24.56;58.06
4576;BME280;2300;51.874;8.430;2023-05-08T13:17:34;101214.81;;;24.72;58.45
4576;BME280;2300;51.874;8.430;2023-05-08T13:20:01;101205.03;;;24.56;57.68
4576;BME280;2300;51.874;8.430;2023-05-08T13:22:30;101210.63;;;24.84;58.08
4576;BME280;2300;51.874;8.430;2023-05-08T13:24:56;101200.81;;;24.18;57.44
4576;BME280;2300;51.874;8.430;2023-05-08T13:27:22;101209.13;;;24.23;58.44